createdAt,value
2018-10-16T00:02:42.773Z,75.56
2018-10-16T00:03:21.019Z,75.66
2018-10-16T00:04:01.365Z,76.14
2018-10-16T00:04:41.818Z,75.76
2018-10-16T00:05:22.246Z,76.52
2018-10-16T00:06:02.625Z,76.33
2018-10-16T00:06:43.032Z,76.04
2018-10-16T00:07:23.526Z,75.95
2018-10-16T00:08:03.813Z,75.95
2018-10-16T00:08:44.233Z,75.76
2018-10-16T00:09:24.750Z,76.81
2018-10-16T00:10:05.142Z,76.33
2018-10-16T00:10:45.485Z,76.52
2018-10-16T00:11:25.920Z,76.42
2018-10-16T00:12:06.318Z,76.52
2018-10-16T00:12:46.718Z,76.52
2018-10-16T00:13:27.196Z,76.62
2018-10-16T00:14:07.588Z,76.42
2018-10-16T00:14:47.997Z,76.52
2018-10-16T00:15:28.459Z,75.85
2018-10-16T00:16:08.898Z,76.23
2018-10-16T00:16:49.246Z,76.14
2018-10-16T00:17:29.691Z,76.04
2018-10-16T00:18:10.205Z,75.76
2018-10-16T00:18:50.615Z,75.18
2018-10-16T00:19:30.989Z,75.66
2018-10-16T00:20:11.675Z,75.47
2018-10-16T00:20:52.630Z,75.85
2018-10-16T00:21:33.155Z,75.95
2018-10-16T00:22:14.009Z,75.76
2018-10-16T00:22:54.432Z,75.76
2018-10-16T00:23:34.852Z,76.81
2018-10-16T00:24:15.621Z,75.66
2018-10-16T00:24:59.978Z,75.37
2018-10-16T00:25:40.188Z,75.37
2018-10-16T00:26:21.212Z,76.14
2018-10-16T00:27:01.746Z,75.76
2018-10-16T00:27:42.054Z,75.66
2018-10-16T00:28:22.484Z,76.33
2018-10-16T00:29:03.288Z,76.23
2018-10-16T00:29:43.346Z,76.04
2018-10-16T00:30:23.719Z,76.52
2018-10-16T00:31:04.238Z,76.33
2018-10-16T00:31:44.805Z,76.62
2018-10-16T00:32:25.053Z,76.23
2018-10-16T00:33:05.459Z,76.04
2018-10-16T00:33:45.842Z,76.23
2018-10-16T00:34:26.261Z,75.76
2018-10-16T00:35:06.734Z,76.23
2018-10-16T00:35:47.250Z,76.04
2018-10-16T00:36:27.608Z,76.33
2018-10-16T00:37:08.017Z,76.42
2018-10-16T00:37:48.476Z,76.33
2018-10-16T00:38:28.905Z,75.95
2018-10-16T00:39:09.239Z,76.04
2018-10-16T00:39:49.909Z,76.04
2018-10-16T00:40:30.313Z,75.66
2018-10-16T00:41:10.803Z,75.95
2018-10-16T00:41:51.132Z,75.66
2018-10-16T00:42:31.536Z,75.47
2018-10-16T00:43:12.003Z,75.66
2018-10-16T00:43:52.411Z,76.14
2018-10-16T00:44:32.732Z,75.95
2018-10-16T00:45:13.160Z,76.04
2018-10-16T00:45:53.658Z,76.04
2018-10-16T00:46:34.134Z,75.76
2018-10-16T00:47:14.528Z,76.23
2018-10-16T00:47:54.906Z,76.52
2018-10-16T00:48:35.379Z,76.42
2018-10-16T00:49:15.800Z,76.04
2018-10-16T00:49:56.175Z,75.18
2018-10-16T00:50:36.655Z,75.66
2018-10-16T00:51:17.100Z,75.56
2018-10-16T00:51:57.607Z,75.37
2018-10-16T00:52:38.111Z,76.04
2018-10-16T00:53:18.613Z,75.85
2018-10-16T00:53:59.710Z,76.04
2018-10-16T00:54:40.062Z,75.85
2018-10-16T00:55:20.433Z,75.56
2018-10-16T00:56:00.939Z,75.95
2018-10-16T00:56:41.995Z,76.14
2018-10-16T00:57:22.403Z,75.66
2018-10-16T00:58:02.796Z,75.37
2018-10-16T00:58:43.239Z,75.66
2018-10-16T00:59:23.712Z,75.37
2018-10-16T01:00:04.722Z,75.37
2018-10-16T01:00:45.075Z,75.85
2018-10-16T01:01:26.330Z,75.95
2018-10-16T01:02:07.399Z,75.56
2018-10-16T01:02:48.376Z,75.37
2018-10-16T01:03:28.807Z,75.37
2018-10-16T01:04:09.766Z,75.37
2018-10-16T01:04:50.661Z,75.95
2018-10-16T01:05:31.081Z,75.37
2018-10-16T01:06:11.513Z,75.56
2018-10-16T01:06:51.959Z,76.23
2018-10-16T01:07:32.999Z,75.56
2018-10-16T01:08:12.823Z,74.99
2018-10-16T01:08:53.260Z,75.18
2018-10-16T01:09:33.667Z,75.56
2018-10-16T01:10:14.127Z,75.18
2018-10-16T01:10:54.548Z,75.18
2018-10-16T01:11:34.908Z,75.27
2018-10-16T01:12:15.353Z,74.99
2018-10-16T01:12:55.801Z,75.47
2018-10-16T01:13:36.215Z,76.14
2018-10-16T01:14:16.645Z,75.18
2018-10-16T01:14:56.937Z,75.27
2018-10-16T01:15:37.410Z,75.27
2018-10-16T01:16:17.739Z,75.56
2018-10-16T01:16:58.179Z,74.99
2018-10-16T01:17:38.531Z,74.51
2018-10-16T01:18:18.992Z,74.7
2018-10-16T01:18:59.435Z,74.61
2018-10-16T01:19:39.775Z,75.47
2018-10-16T01:20:20.205Z,75.37
2018-10-16T01:21:00.666Z,74.51
2018-10-16T01:21:41.027Z,74.41
2018-10-16T01:22:21.437Z,74.7
2018-10-16T01:23:01.943Z,74.7
2018-10-16T01:23:42.322Z,74.99
2018-10-16T01:24:22.688Z,74.7
2018-10-16T01:25:03.069Z,74.7
2018-10-16T01:25:43.504Z,75.18
2018-10-16T01:26:23.919Z,75.18
2018-10-16T01:27:04.379Z,75.52
2018-10-16T01:27:44.737Z,75.37
2018-10-16T01:28:25.199Z,75.52
2018-10-16T01:29:05.620Z,75.62
2018-10-16T01:29:46.055Z,75.91
2018-10-16T01:30:26.433Z,76
2018-10-16T01:31:06.869Z,76
2018-10-16T01:31:47.344Z,76.39
2018-10-16T01:32:27.702Z,76.29
2018-10-16T01:33:08.133Z,76.77
2018-10-16T01:33:48.557Z,76.77
2018-10-16T01:34:28.931Z,76.39
2018-10-16T01:35:09.469Z,76
2018-10-16T01:35:49.927Z,76.2
2018-10-16T01:36:30.342Z,76.1
2018-10-16T01:37:10.810Z,76
2018-10-16T01:37:51.142Z,76
2018-10-16T01:38:31.595Z,76.96
2018-10-16T01:39:12.053Z,76.96
2018-10-16T01:39:52.425Z,76.57
2018-10-16T01:40:32.790Z,76.77
2018-10-16T01:41:13.194Z,76.67
2018-10-16T01:41:53.630Z,76.86
2018-10-16T01:42:34.020Z,76.48
2018-10-16T01:43:14.439Z,76.57
2018-10-16T01:43:54.797Z,76.48
2018-10-16T01:44:35.227Z,76.48
2018-10-16T01:45:15.655Z,76.39
2018-10-16T01:45:56.101Z,76.67
2018-10-16T01:46:36.486Z,76.77
2018-10-16T01:47:16.921Z,76.77
2018-10-16T01:47:57.294Z,77.44
2018-10-16T01:48:37.738Z,77.15
2018-10-16T01:49:18.072Z,76.86
2018-10-16T01:49:58.524Z,77.15
2018-10-16T01:50:38.854Z,76.86
2018-10-16T01:51:19.286Z,77.53
2018-10-16T01:51:59.728Z,77.44
2018-10-16T01:52:40.096Z,77.82
2018-10-16T01:53:20.539Z,77.92
2018-10-16T01:54:00.883Z,77.53
2018-10-16T01:54:41.341Z,77.72
2018-10-16T01:55:21.720Z,77.44
2018-10-16T01:56:02.196Z,77.34
2018-10-16T01:56:42.555Z,77.63
2018-10-16T01:57:22.965Z,77.44
2018-10-16T02:00:23.143Z,77.97
2018-10-16T02:02:00.870Z,78.16
2018-10-16T02:02:38.420Z,78.07
2018-10-16T02:03:21.991Z,78.26
2018-10-16T02:04:02.060Z,78.16
2018-10-16T02:05:55.222Z,78.93
2018-10-16T02:06:34.479Z,78.64
2018-10-16T02:07:14.903Z,78.26
2018-10-16T02:07:55.339Z,78.45
2018-10-16T02:08:35.715Z,78.64
2018-10-16T02:09:16.251Z,78.64
2018-10-16T02:09:56.599Z,79.22
2018-10-16T02:10:37.111Z,78.74
2018-10-16T02:11:17.533Z,78.83
2018-10-16T02:11:57.876Z,78.93
2018-10-16T02:12:38.319Z,78.83
2018-10-16T02:13:18.767Z,79.02
2018-10-16T02:13:59.100Z,78.74
2018-10-16T02:14:39.632Z,79.6
2018-10-16T02:15:19.986Z,78.93
2018-10-16T02:16:00.436Z,79.12
2018-10-16T02:16:40.846Z,79.02
2018-10-16T02:17:21.254Z,79.41
2018-10-16T02:18:01.722Z,79.5
2018-10-16T02:18:42.155Z,79.31
2018-10-16T02:19:22.551Z,79.79
2018-10-16T02:20:02.946Z,79.41
2018-10-16T02:20:43.421Z,79.08
2018-10-16T02:21:23.813Z,79.36
2018-10-16T02:22:04.242Z,79.88
2018-10-16T02:22:44.622Z,79.69
2018-10-16T02:23:25.060Z,79.79
2018-10-16T02:24:05.450Z,79.75
2018-10-16T02:24:45.876Z,79.69
2018-10-16T02:25:26.299Z,79.56
2018-10-16T02:26:06.776Z,79.6
2018-10-16T02:26:47.140Z,79.79
2018-10-16T02:27:27.601Z,79.17
2018-10-16T02:28:07.931Z,79.17
2018-10-16T02:28:48.416Z,79.79
2018-10-16T02:29:28.887Z,80.07
2018-10-16T02:30:09.273Z,79.36
2018-10-16T02:30:49.632Z,79.79
2018-10-16T02:31:30.052Z,79.6
2018-10-16T02:32:10.538Z,79.46
2018-10-16T02:32:50.904Z,79.36
2018-10-16T02:33:31.307Z,79.65
2018-10-16T02:34:11.799Z,79.27
2018-10-16T02:34:52.128Z,79.46
2018-10-16T02:35:32.545Z,79.75
2018-10-16T02:36:13.040Z,80.61
2018-10-16T02:36:53.368Z,80.51
2018-10-16T02:37:33.900Z,80.17
2018-10-16T02:38:14.239Z,80.51
2018-10-16T02:38:56.419Z,79.79
2018-10-16T02:39:36.872Z,79.6
2018-10-16T02:40:17.247Z,79.31
2018-10-16T02:40:57.653Z,79.75
2018-10-16T02:41:38.185Z,80.55
2018-10-16T02:42:18.541Z,80.46
2018-10-16T02:42:58.971Z,80.17
2018-10-16T02:43:39.362Z,79.98
2018-10-16T02:44:19.792Z,79.98
2018-10-16T02:45:00.286Z,79.5
2018-10-16T02:45:40.690Z,79.5
2018-10-16T02:46:21.096Z,79.12
2018-10-16T02:47:01.494Z,79.12
2018-10-16T02:47:41.981Z,78.64
2018-10-16T02:48:22.352Z,78.55
2018-10-16T02:49:02.778Z,78.45
2018-10-16T02:49:43.209Z,78.74
2018-10-16T02:50:23.643Z,78.93
2018-10-16T02:51:04.063Z,79.69
2018-10-16T02:51:44.467Z,79.02
2018-10-16T02:52:24.911Z,79.41
2018-10-16T02:53:05.298Z,79.12
2018-10-16T02:53:45.777Z,79.12
2018-10-16T02:54:26.170Z,79.22
2018-10-16T02:55:06.561Z,79.22
2018-10-16T02:55:46.971Z,78.83
2018-10-16T02:56:27.478Z,79.6
2018-10-16T02:57:07.823Z,79.12
2018-10-16T02:57:48.240Z,79.6
2018-10-16T02:58:28.700Z,79.12
2018-10-16T02:59:09.053Z,79.5
2018-10-16T02:59:49.527Z,79.6
2018-10-16T03:00:29.988Z,79.02
2018-10-16T03:01:10.348Z,79.5
2018-10-16T03:01:50.848Z,79.12
2018-10-16T03:02:31.202Z,79.41
2018-10-16T03:03:11.701Z,79.31
2018-10-16T03:03:52.073Z,79.41
2018-10-16T03:04:32.478Z,79.31
2018-10-16T03:05:12.910Z,79.6
2018-10-16T03:05:53.435Z,79.41
2018-10-16T03:06:33.899Z,79.31
2018-10-16T03:07:14.239Z,79.41
2018-10-16T03:07:54.641Z,79.31
2018-10-16T03:08:35.040Z,79.6
2018-10-16T03:09:15.461Z,79.6
2018-10-16T03:09:55.848Z,79.31
2018-10-16T03:10:36.358Z,78.93
2018-10-16T03:11:16.741Z,79.02
2018-10-16T03:11:57.156Z,79.5
2018-10-16T03:12:37.624Z,79.02
2018-10-16T03:13:18.015Z,79.5
2018-10-16T03:13:58.452Z,79.02
2018-10-16T03:14:38.810Z,79.02
2018-10-16T03:15:19.237Z,79.6
2018-10-16T03:15:59.756Z,79.02
2018-10-16T03:16:40.115Z,79.12
2018-10-16T03:17:20.703Z,79.88
2018-10-16T03:18:01.026Z,79.5
2018-10-16T03:18:41.488Z,78.64
2018-10-16T03:19:21.901Z,78.26
2018-10-16T03:20:02.289Z,78.64
2018-10-16T03:20:42.800Z,78.36
2018-10-16T03:21:23.144Z,78.07
2018-10-16T03:22:03.512Z,77.97
2018-10-16T03:22:43.956Z,77.69
2018-10-16T03:23:24.470Z,78.45
2018-10-16T03:24:04.906Z,78.45
2018-10-16T03:24:45.335Z,78.45
2018-10-16T03:25:25.853Z,78.64
2018-10-16T03:26:06.194Z,79.22
2018-10-16T03:26:46.648Z,79.12
2018-10-16T03:27:27.031Z,79.17
2018-10-16T03:28:07.436Z,79.5
2018-10-16T03:28:47.900Z,79.17
2018-10-16T03:29:28.337Z,78.89
2018-10-16T03:30:08.763Z,79.31
2018-10-16T03:30:49.167Z,79.46
2018-10-16T03:31:29.583Z,78.99
2018-10-16T03:32:09.983Z,79.31
2018-10-16T03:32:50.402Z,78.03
2018-10-16T03:33:30.825Z,78.41
2018-10-16T03:34:12.163Z,78.99
2018-10-16T03:34:52.329Z,79.17
2018-10-16T03:35:32.665Z,79.27
2018-10-16T03:36:13.039Z,79.17
2018-10-16T03:36:53.445Z,79.75
2018-10-16T03:37:33.853Z,79.36
2018-10-16T03:38:14.324Z,79.79
2018-10-16T03:38:54.678Z,79.27
2018-10-16T03:39:35.183Z,79.65
2018-10-16T03:40:15.598Z,79.65
2018-10-16T03:40:56.057Z,79.85
2018-10-16T03:41:36.463Z,79.94
2018-10-16T03:42:16.951Z,80.61
2018-10-16T03:42:57.328Z,79.56
2018-10-16T03:43:37.748Z,79.56
2018-10-16T03:44:18.151Z,78.99
2018-10-16T03:44:58.530Z,79.56
2018-10-16T03:45:38.998Z,79.56
2018-10-16T03:46:19.489Z,79.36
2018-10-16T03:46:59.855Z,79.08
2018-10-16T03:47:40.297Z,79.56
2018-10-16T03:48:20.652Z,79.36
2018-10-16T03:49:01.065Z,79.75
2018-10-16T03:49:41.507Z,79.56
2018-10-16T03:50:21.881Z,79.94
2018-10-16T03:51:02.298Z,79.65
2018-10-16T03:51:42.816Z,79.27
2018-10-16T03:52:23.445Z,78.7
2018-10-16T03:53:03.604Z,79.94
2018-10-16T03:53:44.024Z,79.36
2018-10-16T03:54:24.435Z,79.08
2018-10-16T03:55:04.907Z,79.46
2018-10-16T03:55:45.324Z,79.27
2018-10-16T03:56:25.642Z,79.08
2018-10-16T03:57:06.122Z,80.22
2018-10-16T03:57:46.502Z,79.79
2018-10-16T03:58:26.992Z,79.79
2018-10-16T03:59:07.358Z,79.46
2018-10-16T03:59:47.742Z,78.74
2018-10-16T04:00:28.215Z,78.22
2018-10-16T04:01:08.584Z,79.12
2018-10-16T04:01:49.044Z,79.12
2018-10-16T04:02:29.444Z,78.64
2018-10-16T04:03:09.818Z,78.41
2018-10-16T04:03:50.317Z,78.6
2018-10-16T04:04:30.667Z,78.51
2018-10-16T04:05:11.082Z,79.27
2018-10-16T04:05:51.445Z,78.89
2018-10-16T04:06:31.955Z,78.64
2018-10-16T04:07:12.270Z,78.83
2018-10-16T04:07:52.717Z,78.99
2018-10-16T04:08:33.052Z,79.08
2018-10-16T04:09:13.508Z,78.83
2018-10-16T04:09:53.894Z,78.93
2018-10-16T04:10:34.358Z,79.27
2018-10-16T04:11:14.781Z,79.27
2018-10-16T04:11:55.269Z,79.88
2018-10-16T04:12:35.682Z,79.36
2018-10-16T04:13:16.041Z,78.99
2018-10-16T04:13:56.516Z,78.74
2018-10-16T04:14:36.896Z,79.6
2018-10-16T04:15:17.299Z,79.5
2018-10-16T04:15:57.678Z,79.17
2018-10-16T04:16:38.144Z,78.6
2018-10-16T04:17:18.487Z,78.41
2018-10-16T04:17:58.910Z,78.45
2018-10-16T04:18:40.788Z,79.02
2018-10-16T04:19:21.769Z,79.08
2018-10-16T04:20:02.773Z,79.02
2018-10-16T04:20:44.694Z,79.79
2018-10-16T04:21:25.702Z,79.6
2018-10-16T04:22:07.411Z,78.83
2018-10-16T04:22:49.240Z,79.22
2018-10-16T04:23:30.614Z,79.6
2018-10-16T04:24:11.579Z,78.36
2018-10-16T04:24:52.880Z,78.45
2018-10-16T04:25:33.794Z,78.74
2018-10-16T04:26:14.228Z,78.83
2018-10-16T04:26:55.626Z,79.02
2018-10-16T04:27:36.186Z,78.74
2018-10-16T04:28:17.897Z,79.22
2018-10-16T05:06:34.247Z,85.3
2018-10-16T05:12:54.984Z,86.06
2018-10-16T05:13:47.437Z,86.54
2018-10-16T05:14:39.869Z,86.92
2018-10-16T05:15:32.937Z,87.78
2018-10-16T05:16:25.490Z,88.45
2018-10-16T05:17:18.210Z,87.54
2018-10-16T05:18:10.429Z,86.39
2018-10-16T05:19:03.022Z,85.82
2018-10-16T05:19:55.637Z,85.34
2018-10-16T05:20:47.452Z,84.48
2018-10-16T05:21:40.945Z,84.23
2018-10-16T05:22:33.917Z,84.23
2018-10-16T05:23:26.853Z,83.28
2018-10-16T05:24:19.366Z,83.47
2018-10-16T05:25:11.831Z,82.81
2018-10-16T05:26:04.151Z,81.76
2018-10-16T05:26:56.060Z,81.56
2018-10-16T05:27:49.358Z,81.76
2018-10-16T05:28:41.983Z,81.27
2018-10-16T05:29:34.426Z,81.09
2018-10-16T05:30:27.137Z,81.37
2018-10-16T05:31:20.235Z,81.37
2018-10-16T05:32:14.046Z,81.56
2018-10-16T05:33:06.399Z,81.18
2018-10-16T05:34:01.249Z,81.37
2018-10-16T05:35:00.034Z,81.56
2018-10-16T05:37:03.901Z,81.56
2018-10-16T05:37:44.191Z,80.51
2018-10-16T05:38:24.897Z,80.8
2018-10-16T05:39:05.321Z,80.7
2018-10-16T05:39:45.739Z,80.9
2018-10-16T05:40:26.081Z,80.41
2018-10-16T05:41:06.588Z,80.84
2018-10-16T05:41:46.973Z,80.9
2018-10-16T05:42:27.393Z,80.22
2018-10-16T05:43:07.759Z,80.51
2018-10-16T05:43:48.247Z,80.55
2018-10-16T05:44:28.566Z,80.07
2018-10-16T05:45:09.255Z,80.17
2018-10-16T05:45:49.560Z,79.98
2018-10-16T05:46:30.174Z,80.32
2018-10-16T05:47:10.569Z,79.98
2018-10-16T05:47:50.967Z,80.51
2018-10-16T05:48:31.288Z,80.51
2018-10-16T05:49:11.759Z,79.98
2018-10-16T05:49:52.178Z,79.69
2018-10-16T05:50:32.588Z,79.41
2018-10-16T05:51:13.024Z,79.79
2018-10-16T05:51:53.413Z,79.5
2018-10-16T05:52:33.837Z,79.5
2018-10-16T05:53:14.269Z,79.12
2018-10-16T05:53:54.733Z,79.41
2018-10-16T05:54:35.138Z,79.12
2018-10-16T05:55:15.597Z,78.83
2018-10-16T05:55:56.015Z,79.5
2018-10-16T05:56:36.473Z,79.31
2018-10-16T05:57:16.963Z,79.12
2018-10-16T05:57:57.694Z,79.22
2018-10-16T05:58:37.829Z,79.5
2018-10-16T05:59:18.285Z,79.5
2018-10-16T05:59:58.767Z,79.79
2018-10-16T06:00:39.248Z,79.5
2018-10-16T06:01:19.628Z,79.22
2018-10-16T06:02:00.052Z,79.5
2018-10-16T06:02:40.590Z,79.41
2018-10-16T06:03:20.992Z,79.79
2018-10-16T06:04:01.492Z,79.5
2018-10-16T06:04:41.878Z,79.41
2018-10-16T06:05:22.301Z,79.69
2018-10-16T06:06:02.692Z,80.07
2018-10-16T06:06:43.139Z,79.79
2018-10-16T06:07:23.524Z,79.6
2018-10-16T06:08:03.966Z,79.69
2018-10-16T06:08:44.433Z,79.98
2018-10-16T06:09:24.790Z,79.5
2018-10-16T06:10:05.175Z,79.31
2018-10-16T06:10:45.626Z,79.79
2018-10-16T06:11:26.111Z,79.6
2018-10-16T06:12:06.448Z,79.6
2018-10-16T06:12:46.923Z,79.5
2018-10-16T06:13:27.384Z,79.12
2018-10-16T06:14:07.805Z,79.79
2018-10-16T06:14:48.149Z,79.5
2018-10-16T06:15:28.609Z,79.02
2018-10-16T06:16:09.132Z,79.22
2018-10-16T06:16:49.455Z,78.93
2018-10-16T06:17:29.885Z,78.49
2018-10-16T06:18:10.233Z,78.64
2018-10-16T06:18:50.653Z,78.97
2018-10-16T06:19:31.098Z,79.06
2018-10-16T06:20:11.530Z,78.39
2018-10-16T06:20:51.900Z,78.3
2018-10-16T06:21:32.321Z,77.92
2018-10-16T06:22:12.797Z,77.09
2018-10-16T06:22:53.176Z,76.04
2018-10-16T06:23:33.643Z,75.56
2018-10-16T06:24:14.065Z,75.66
2018-10-16T06:24:54.460Z,75.47
2018-10-16T06:25:34.900Z,74.61
2018-10-16T06:26:15.337Z,74.9
2018-10-16T06:26:55.765Z,74.7
2018-10-16T06:27:36.173Z,74.8
2018-10-16T06:30:00.762Z,73.69
2018-10-16T06:30:53.702Z,73.4
2018-10-16T06:31:46.100Z,73.11
2018-10-16T06:32:38.623Z,73.5
2018-10-16T06:33:31.253Z,72.92
2018-10-16T06:34:26.911Z,73.3
2018-10-16T06:35:23.639Z,72.63
2018-10-16T06:36:18.892Z,72.44
2018-10-16T06:37:14.127Z,72.54
2018-10-16T06:38:10.350Z,72.44
2018-10-16T06:39:04.172Z,71.77
2018-10-16T06:39:56.998Z,71.97
2018-10-16T06:40:49.386Z,72.63
2018-10-16T06:41:41.881Z,72.25
2018-10-16T06:42:37.654Z,72.63
2018-10-16T06:43:30.916Z,72.34
2018-10-16T06:44:32.164Z,72.63
2018-10-16T06:45:38.291Z,72.63
2018-10-16T06:46:42.024Z,72.83
2018-10-16T06:47:36.367Z,72.98
2018-10-16T06:48:34.761Z,73.27
2018-10-16T06:49:30.380Z,73.08
2018-10-16T06:50:31.165Z,73.55
2018-10-16T06:51:28.280Z,73.94
2018-10-16T06:52:35.053Z,73.55
2018-10-16T06:54:51.851Z,73.36
2018-10-16T06:55:57.330Z,73.94
2018-10-16T06:56:59.944Z,73.75
2018-10-16T06:58:20.168Z,73.27
2018-10-16T06:59:28.615Z,74.32
2018-10-16T07:00:41.496Z,73.94
2018-10-16T07:03:14.344Z,73.65
2018-10-16T07:03:53.469Z,73.46
2018-10-16T07:04:33.912Z,73.65
2018-10-16T07:05:14.387Z,73.27
2018-10-16T07:05:54.824Z,73.27
2018-10-16T07:06:35.296Z,73.59
2018-10-16T07:07:15.992Z,73.21
2018-10-16T07:07:56.203Z,72.92
2018-10-16T07:08:36.704Z,73.11
2018-10-16T07:09:17.173Z,73.02
2018-10-16T07:09:57.781Z,72.92
2018-10-16T07:10:39.898Z,73.11
2018-10-16T07:11:19.705Z,72.54
2018-10-16T07:12:00.458Z,72.54
2018-10-16T07:12:42.279Z,72.44
2018-10-16T07:13:23.402Z,72.63
2018-10-16T07:14:03.460Z,72.44
2018-10-16T07:14:45.312Z,72.25
2018-10-16T07:15:25.791Z,71.91
2018-10-16T07:16:07.908Z,72
2018-10-16T07:16:47.565Z,71.52
2018-10-16T07:17:28.489Z,70.85
2018-10-16T07:18:09.773Z,70.18
2018-10-16T07:18:50.278Z,70.21
2018-10-16T07:19:31.120Z,69.74
2018-10-16T07:20:11.888Z,69.54
2018-10-16T07:20:52.312Z,68.59
2018-10-16T07:21:33.009Z,68.49
2018-10-16T07:22:14.606Z,68.01
2018-10-16T07:22:55.524Z,67.72
2018-10-16T07:23:35.434Z,68.14
2018-10-16T07:24:15.765Z,67.18
2018-10-16T07:24:56.545Z,66.99
2018-10-16T07:25:37.061Z,66.51
2018-10-16T07:26:17.558Z,66.35
2018-10-16T07:26:57.852Z,66.32
2018-10-16T07:27:38.346Z,66.16
2018-10-16T07:28:18.770Z,65.2
2018-10-16T07:28:59.503Z,64.92
2018-10-16T07:29:40.205Z,64.92
2018-10-16T07:30:20.908Z,64.92
2018-10-16T07:31:04.417Z,64.63
2018-10-16T07:31:45.202Z,64.34
2018-10-16T07:32:25.659Z,64.47
2018-10-16T07:33:05.935Z,63.89
2018-10-16T07:33:46.485Z,63.42
2018-10-16T07:34:26.936Z,63.32
2018-10-16T07:35:08.506Z,63.12
2018-10-16T07:35:49.072Z,62.07
2018-10-16T07:36:31.862Z,62.01
2018-10-16T07:37:11.900Z,62.29
2018-10-16T07:37:52.300Z,61.43
2018-10-16T07:38:32.820Z,61.72
2018-10-16T07:39:13.126Z,61.62
2018-10-16T07:39:54.013Z,61.27
2018-10-16T07:40:35.096Z,60.78
2018-10-16T07:41:15.436Z,60.78
2018-10-16T07:41:56.083Z,60.5
2018-10-16T07:42:36.506Z,60.5
2018-10-16T07:43:17.230Z,60.28
2018-10-16T07:43:57.510Z,60.57
2018-10-16T07:44:44.188Z,60.75
2018-10-16T07:45:24.668Z,61.05
2018-10-16T07:46:05.045Z,61.33
2018-10-16T07:46:45.762Z,61.14
2018-10-16T07:47:26.246Z,60.98
2018-10-16T07:48:06.677Z,60.88
2018-10-16T07:49:00.271Z,60.5
2018-10-16T07:50:42.600Z,58.03
2018-10-16T07:52:45.143Z,56.91
2018-10-16T07:53:38.931Z,56.36
2018-10-16T07:54:35.569Z,55.52
2018-10-16T07:55:45.270Z,54.85
2018-10-16T07:57:40.374Z,54
2018-10-16T07:58:33.045Z,53.43
2018-10-16T07:59:25.754Z,53.36
2018-10-16T08:00:21.035Z,53.07
2018-10-16T08:01:16.952Z,52.49
2018-10-16T08:02:09.494Z,52.3
2018-10-16T08:03:16.831Z,51.56
2018-10-16T08:04:17.292Z,51.36
2018-10-16T08:05:12.997Z,51.07
2018-10-16T08:06:06.193Z,50.49
2018-10-16T08:09:40.213Z,48.71
2018-10-16T08:10:20.681Z,48.23
2018-10-16T08:11:01.099Z,48.61
2018-10-16T08:11:41.499Z,47.67
2018-10-16T08:12:22.124Z,47.38
2018-10-16T08:13:02.461Z,47.58
2018-10-16T08:13:43.131Z,47.09
2018-10-16T08:14:23.851Z,46.51
2018-10-16T08:15:04.145Z,47
2018-10-16T08:15:44.937Z,47
2018-10-16T08:16:25.380Z,47.48
2018-10-16T08:17:05.871Z,47.38
2018-10-16T08:17:46.332Z,47
2018-10-16T08:18:26.868Z,46.9
2018-10-16T08:19:07.594Z,46.9
2018-10-16T08:19:48.327Z,46.81
2018-10-16T08:20:28.841Z,46.61
2018-10-16T08:21:09.317Z,47
2018-10-16T08:21:50.204Z,47
2018-10-16T08:22:31.195Z,47
2018-10-16T08:23:11.656Z,46.9
2018-10-16T08:23:52.776Z,46.64
2018-10-16T08:24:33.640Z,46.73
2018-10-16T08:25:13.762Z,45.96
2018-10-16T08:25:55.166Z,45.98
2018-10-16T08:26:36.151Z,45.59
2018-10-16T08:27:16.853Z,45.31
2018-10-16T08:27:57.656Z,45.04
2018-10-16T08:28:37.913Z,45.04
2018-10-16T08:29:18.512Z,44.56
2018-10-16T08:30:00.216Z,44.17
2018-10-16T08:30:40.387Z,44.67
2018-10-16T08:31:21.659Z,44.46
2018-10-16T08:32:01.679Z,44.57
2018-10-16T08:32:42.296Z,44.38
2018-10-16T08:33:23.453Z,43.9
2018-10-16T08:34:03.896Z,43.73
2018-10-16T08:34:45.073Z,43.15
2018-10-16T08:35:26.329Z,43.17
2018-10-16T08:36:06.995Z,42.97
2018-10-16T08:36:48.284Z,42.41
2018-10-16T08:37:29.395Z,42.03
2018-10-16T08:38:09.119Z,41.45
2018-10-16T08:38:50.650Z,41.55
2018-10-16T08:39:31.054Z,41.56
2018-10-16T08:40:11.512Z,41.08
2018-10-16T08:40:52.664Z,41.56
2018-10-16T08:41:32.671Z,41.47
2018-10-16T08:42:13.533Z,40.5
2018-10-16T08:42:54.011Z,40.4
2018-10-16T08:43:35.641Z,40.31
2018-10-16T08:44:15.698Z,40.5
2018-10-16T08:44:57.417Z,40.5
2018-10-16T08:45:37.666Z,40.5
2018-10-16T08:46:19.378Z,40.31
2018-10-16T08:46:59.563Z,39.82
2018-10-16T08:47:40.871Z,39.84
2018-10-16T08:48:21.166Z,39.72
2018-10-16T08:49:01.535Z,39.53
2018-10-16T08:49:42.148Z,39.53
2018-10-16T08:50:22.696Z,39.53
2018-10-16T08:51:04.208Z,39.53
2018-10-16T08:51:44.406Z,39.26
2018-10-16T08:52:25.130Z,38.87
2018-10-16T08:53:05.637Z,38.4
2018-10-16T08:53:46.834Z,38.99
2018-10-16T08:54:27.172Z,38.58
2018-10-16T08:55:08.101Z,38.12
2018-10-16T08:55:48.498Z,38.39
2018-10-16T08:56:29.341Z,38.29
2018-10-16T08:57:10.228Z,38.39
2018-10-16T08:57:50.584Z,38.31
2018-10-16T08:58:31.591Z,37.92
2018-10-16T08:59:12.069Z,37.82
2018-10-16T08:59:53.207Z,37.45
2018-10-16T09:00:33.700Z,37.26
2018-10-16T09:01:15.166Z,37.07
2018-10-16T09:01:55.415Z,36.4
2018-10-16T09:02:36.232Z,35.74
2018-10-16T09:03:16.720Z,35.84
2018-10-16T09:03:57.140Z,35.27
2018-10-16T09:04:37.587Z,34.88
2018-10-16T09:05:17.985Z,34.69
2018-10-16T09:05:58.805Z,34.11
2018-10-16T09:06:39.739Z,34.22
2018-10-16T09:07:20.242Z,34.52
2018-10-16T09:08:00.564Z,34.32
2018-10-16T09:09:20.799Z,34.32
2018-10-16T09:10:01.233Z,33.93
2018-10-16T09:10:41.725Z,34.03
2018-10-16T09:11:22.130Z,33.93
2018-10-16T09:12:02.566Z,34.03
2018-10-16T09:12:42.990Z,33.56
2018-10-16T09:13:23.768Z,33.07
2018-10-16T09:14:04.661Z,33.17
2018-10-16T09:14:45.481Z,33.17
2018-10-16T09:15:25.842Z,32.78
2018-10-16T09:16:06.323Z,33.18
2018-10-16T09:16:46.792Z,32.11
2018-10-16T09:17:27.413Z,32.68
2018-10-16T09:18:07.975Z,32.79
2018-10-16T09:18:48.570Z,32.79
2018-10-16T09:19:29.569Z,32.4
2018-10-16T09:20:11.303Z,32.31
2018-10-16T09:22:01.335Z,31.92
2018-10-16T09:22:43.222Z,31.45
2018-10-16T09:23:23.720Z,31.37
2018-10-16T09:24:04.617Z,31.17
2018-10-16T09:24:44.926Z,30.78
2018-10-16T09:25:25.489Z,30.58
2018-10-16T09:26:05.888Z,30.49
2018-10-16T09:26:46.679Z,30.21
2018-10-16T09:27:27.206Z,30.21
2018-10-16T09:28:07.971Z,30.21
2018-10-16T09:28:48.411Z,30.02
2018-10-16T09:29:28.870Z,29.82
2018-10-16T09:30:09.369Z,29.82
2018-10-16T09:30:51.098Z,29.35
2018-10-16T09:31:30.474Z,29.15
2018-10-16T09:32:13.054Z,29.15
2018-10-16T09:32:53.402Z,29.15
2018-10-16T09:33:34.357Z,29.54
2018-10-16T09:34:15.674Z,29.35
2018-10-16T09:34:58.292Z,29.46
2018-10-16T09:35:38.224Z,29.36
2018-10-16T09:37:41.544Z,28.19
2018-10-16T09:38:26.125Z,28.58
2018-10-16T09:39:06.318Z,28.39
2018-10-16T09:39:48.564Z,28.19
2018-10-16T09:40:29.560Z,28.49
2018-10-16T09:41:11.409Z,29.17
2018-10-16T09:43:14.395Z,28.3
2018-10-16T09:43:59.727Z,28.01
2018-10-16T09:44:41.049Z,28.2
2018-10-16T09:45:23.984Z,28.22
2018-10-16T09:47:16.191Z,27.36
2018-10-16T09:47:56.580Z,26.67
2018-10-16T09:48:37.749Z,26.49
2018-10-16T09:49:17.993Z,26.68
2018-10-16T09:49:58.382Z,26.29
2018-10-16T09:50:38.823Z,26.1
2018-10-16T09:51:19.342Z,25.92
2018-10-16T09:52:00.005Z,25.62
2018-10-16T09:52:40.538Z,25.43
2018-10-16T09:53:29.077Z,25.52
2018-10-16T10:03:18.067Z,26.11
2018-10-16T10:04:13.104Z,26.11
2018-10-16T10:05:11.065Z,25.82
2018-10-16T10:06:27.945Z,25.73
2018-10-16T10:07:43.918Z,25.55
2018-10-16T10:08:41.888Z,25.55
2018-10-16T10:09:34.810Z,25.63
2018-10-16T10:10:27.993Z,25.44
2018-10-16T10:13:43.615Z,24.19
2018-10-16T10:14:41.963Z,24.29
2018-10-16T10:15:49.784Z,24.2
2018-10-16T10:25:38.881Z,24.38
2018-10-16T10:26:39.388Z,24.29
2018-10-16T10:27:43.966Z,24.19
2018-10-16T10:28:36.826Z,24.2
2018-10-16T10:29:49.263Z,23.53
2018-10-16T11:08:56.018Z,28.58
2018-10-16T11:09:36.526Z,28.49
2018-10-16T11:10:17.355Z,28.68
2018-10-16T11:10:57.785Z,28.49
2018-10-16T11:11:39.587Z,28.09
2018-10-16T11:12:19.455Z,28.19
2018-10-16T11:14:01.875Z,28.57
2018-10-16T11:14:42.309Z,28.29
2018-10-16T11:15:22.849Z,28.18
2018-10-16T11:16:03.378Z,27.59
2018-10-16T11:16:44.202Z,28.38